createdAt,value
2022-09-06T00:01:38.174Z,15.47
2022-09-06T00:04:15.001Z,15.70
2022-09-06T00:06:44.979Z,15.79
2022-09-06T00:09:14.561Z,15.73
2022-09-06T00:11:44.165Z,15.83
2022-09-06T00:14:13.657Z,16.20
2022-09-06T00:16:43.263Z,15.92
2022-09-06T00:19:15.378Z,15.89
2022-09-06T00:21:44.965Z,15.79
2022-09-06T00:24:14.459Z,15.89
2022-09-06T00:26:43.990Z,15.75
2022-09-06T00:29:13.533Z,15.77
2022-09-06T00:31:43.155Z,15.79
2022-09-06T00:34:15.274Z,15.61
2022-09-06T00:36:44.958Z,15.30
2022-09-06T00:39:14.481Z,15.16
2022-09-06T00:41:44.026Z,15.20
2022-09-06T00:44:13.541Z,15.07
2022-09-06T00:46:45.974Z,15.03
2022-09-06T00:49:24.216Z,14.92
2022-09-06T00:51:55.723Z,15.02
2022-09-06T00:54:25.487Z,14.90
2022-09-06T00:56:55.019Z,14.86
2022-09-06T00:59:24.974Z,14.98
2022-09-06T01:01:55.100Z,14.91
2022-09-06T01:04:28.111Z,14.77
2022-09-06T01:07:04.150Z,14.74
2022-09-06T01:09:42.935Z,14.80
2022-09-06T01:12:23.822Z,14.77
2022-09-06T01:15:05.961Z,14.88
2022-09-06T01:17:44.677Z,14.94
2022-09-06T01:20:30.670Z,14.92
2022-09-06T01:23:25.446Z,14.96
2022-09-06T01:26:03.624Z,14.85
2022-09-06T01:28:37.473Z,14.90
2022-09-06T01:31:22.755Z,14.87
2022-09-06T01:33:59.058Z,14.88
2022-09-06T01:36:30.274Z,14.88
2022-09-06T01:38:59.777Z,14.89
2022-09-06T01:41:29.338Z,14.90
2022-09-06T01:44:01.950Z,14.92
2022-09-06T01:46:39.583Z,14.84
2022-09-06T01:49:24.415Z,14.93
2022-09-06T01:52:03.739Z,14.96
2022-09-06T01:54:48.398Z,14.88
2022-09-06T01:57:28.238Z,14.84
2022-09-06T02:00:12.157Z,14.88
2022-09-06T02:02:51.013Z,14.77
2022-09-06T02:05:25.027Z,14.84
2022-09-06T02:07:56.907Z,14.82
2022-09-06T02:10:29.561Z,14.72
2022-09-06T02:13:01.786Z,14.77
2022-09-06T02:15:35.965Z,14.74
2022-09-06T02:18:09.185Z,14.70
2022-09-06T02:20:43.398Z,14.71
2022-09-06T02:23:13.167Z,14.74
2022-09-06T02:25:46.606Z,14.71
2022-09-06T02:28:16.850Z,14.82
2022-09-06T02:30:51.438Z,14.78
2022-09-06T02:33:22.607Z,14.70
2022-09-06T02:35:55.064Z,14.72
2022-09-06T02:38:26.144Z,14.75
2022-09-06T02:40:57.027Z,14.75
2022-09-06T02:43:27.017Z,14.69
2022-09-06T02:45:59.266Z,14.71
2022-09-06T02:48:28.853Z,14.81
2022-09-06T02:50:58.391Z,14.85
2022-09-06T02:53:27.905Z,14.77
2022-09-06T02:55:57.390Z,14.78
2022-09-06T02:58:27.220Z,14.78
2022-09-06T03:00:59.446Z,14.80
2022-09-06T03:03:29.422Z,14.88
2022-09-06T03:05:59.090Z,14.87
2022-09-06T03:08:33.530Z,14.82
2022-09-06T03:11:03.905Z,14.89
2022-09-06T03:13:33.437Z,14.87
2022-09-06T03:16:05.861Z,14.77
2022-09-06T03:18:35.587Z,14.79
2022-09-06T03:21:05.249Z,14.77
2022-09-06T03:23:34.731Z,14.76
2022-09-06T03:26:04.273Z,14.74
2022-09-06T03:28:33.772Z,14.71
2022-09-06T03:31:06.345Z,14.80
2022-09-06T03:33:35.935Z,14.68
2022-09-06T03:36:06.285Z,14.72
2022-09-06T03:38:35.806Z,14.70
2022-09-06T03:41:05.394Z,14.74
2022-09-06T03:43:34.903Z,14.76
2022-09-06T03:46:07.135Z,14.77
2022-09-06T03:48:36.690Z,14.72
2022-09-06T03:51:06.314Z,14.67
2022-09-06T03:53:35.805Z,14.62
2022-09-06T03:56:05.774Z,14.61
2022-09-06T03:58:35.859Z,14.70
2022-09-06T04:01:11.257Z,14.86
2022-09-06T04:03:41.579Z,15.10
2022-09-06T04:06:11.676Z,15.04
2022-09-06T04:08:41.582Z,14.98
2022-09-06T04:11:11.285Z,15.32
2022-09-06T04:13:41.654Z,15.36
2022-09-06T04:16:13.916Z,15.28
2022-09-06T04:18:43.847Z,15.17
2022-09-06T04:21:13.422Z,15.21
2022-09-06T04:23:42.969Z,15.15
2022-09-06T04:26:12.527Z,15.09
2022-09-06T04:28:42.050Z,15.18
2022-09-06T04:31:14.250Z,15.09
2022-09-06T04:33:43.922Z,15.18
2022-09-06T04:36:14.607Z,15.19
2022-09-06T04:38:45.638Z,15.12
2022-09-06T04:41:17.083Z,15.17
2022-09-06T04:43:46.602Z,15.23
2022-09-06T04:46:23.011Z,15.18
2022-09-06T04:48:52.621Z,14.94
2022-09-06T04:51:22.267Z,15.08
2022-09-06T04:53:52.018Z,15.05
2022-09-06T04:56:24.018Z,14.76
2022-09-06T04:58:54.328Z,14.64
2022-09-06T05:01:26.716Z,14.54
2022-09-06T05:03:57.202Z,14.58
2022-09-06T05:06:28.158Z,14.63
2022-09-06T05:08:57.689Z,14.66
2022-09-06T05:11:27.468Z,14.66
2022-09-06T05:13:56.968Z,14.61
2022-09-06T05:16:29.126Z,14.57
2022-09-06T05:18:58.709Z,14.57
2022-09-06T05:21:28.319Z,14.56
2022-09-06T05:23:58.762Z,14.58
2022-09-06T05:26:28.489Z,14.56
2022-09-06T05:28:57.990Z,14.56
2022-09-06T05:31:31.967Z,14.55
2022-09-06T05:34:02.198Z,14.63
2022-09-06T05:36:32.926Z,14.57
2022-09-06T05:39:02.488Z,14.52
2022-09-06T05:41:32.901Z,14.51
2022-09-06T05:44:02.514Z,14.57
2022-09-06T05:46:34.625Z,14.56
2022-09-06T05:49:07.880Z,14.60
2022-09-06T05:51:37.543Z,14.60
2022-09-06T05:54:07.843Z,14.59
2022-09-06T05:56:37.351Z,14.60
2022-09-06T05:59:07.058Z,14.65
2022-09-06T06:01:39.285Z,14.67
2022-09-06T06:04:08.954Z,14.70
2022-09-06T06:06:38.475Z,14.70
2022-09-06T06:09:08.207Z,14.76
2022-09-06T06:11:37.819Z,14.79
2022-09-06T06:14:08.196Z,14.78
2022-09-06T06:16:40.553Z,14.87
2022-09-06T06:19:10.125Z,14.90
2022-09-06T06:21:40.082Z,14.89
2022-09-06T06:24:10.066Z,14.95
2022-09-06T06:26:39.989Z,15.02
2022-09-06T06:29:09.753Z,15.06
2022-09-06T06:31:42.123Z,14.97
2022-09-06T06:34:11.987Z,14.97
2022-09-06T06:36:41.553Z,14.98
2022-09-06T06:39:12.007Z,15.15
2022-09-06T06:41:41.612Z,15.33
2022-09-06T06:44:11.196Z,15.47
2022-09-06T06:46:43.286Z,15.49
2022-09-06T06:49:12.808Z,15.53
2022-09-06T06:51:42.446Z,15.60
2022-09-06T06:54:11.959Z,15.61
2022-09-06T06:56:44.838Z,15.69
2022-09-06T06:59:14.537Z,15.62
2022-09-06T07:01:46.911Z,15.68
2022-09-06T07:04:16.563Z,15.62
2022-09-06T07:12:32.783Z,15.40
2022-09-06T07:15:02.294Z,15.38
2022-09-06T07:17:34.719Z,15.42
2022-09-06T07:22:42.030Z,15.40
2022-09-06T07:25:15.326Z,15.40
2022-09-06T07:27:47.977Z,15.39
2022-09-06T07:30:19.581Z,15.46
2022-09-06T07:32:51.854Z,15.47
2022-09-06T07:35:22.111Z,15.48
2022-09-06T07:37:55.445Z,15.54
2022-09-06T07:40:25.435Z,15.48
2022-09-06T07:42:55.011Z,15.47
2022-09-06T07:45:24.518Z,15.48
2022-09-06T07:48:00.825Z,15.48
2022-09-06T07:50:48.460Z,15.54
2022-09-06T07:53:30.307Z,15.56
2022-09-06T07:56:01.426Z,15.53
2022-09-06T07:58:31.639Z,15.67
2022-09-06T08:01:27.752Z,15.73
2022-09-06T08:04:00.805Z,15.71
2022-09-06T08:09:21.464Z,15.81
2022-09-06T08:11:51.176Z,15.89
2022-09-06T08:14:20.702Z,15.91
2022-09-06T08:16:50.266Z,15.99
2022-09-06T08:19:22.373Z,16.03
2022-09-06T08:21:52.035Z,16.13
2022-09-06T08:24:21.566Z,16.06
2022-09-06T08:26:51.114Z,16.06
2022-09-06T08:29:20.825Z,16.15
2022-09-06T08:31:50.566Z,16.18
2022-09-06T08:34:22.864Z,16.18
2022-09-06T08:36:52.374Z,16.21
2022-09-06T08:39:21.893Z,16.35
2022-09-06T08:41:54.716Z,16.59
2022-09-06T08:47:18.093Z,16.71
2022-09-06T08:49:52.903Z,16.75
2022-09-06T08:53:15.679Z,16.70
2022-09-06T08:55:40.067Z,16.60
2022-09-06T08:58:20.597Z,16.65
2022-09-06T09:00:58.315Z,16.70
2022-09-06T09:03:29.866Z,16.68
2022-09-06T09:06:05.429Z,16.84
2022-09-06T09:08:41.446Z,16.90
2022-09-06T09:11:15.011Z,16.83
2022-09-06T09:13:55.934Z,16.76
2022-09-06T09:16:26.278Z,16.71
2022-09-06T09:18:57.747Z,16.68
2022-09-06T09:21:31.130Z,16.74
2022-09-06T09:24:02.347Z,16.71
2022-09-06T09:26:36.894Z,16.77
2022-09-06T09:29:08.502Z,16.77
2022-09-06T09:31:39.696Z,16.78
2022-09-06T09:34:14.382Z,16.83
2022-09-06T09:39:41.232Z,16.97
2022-09-06T09:42:11.476Z,16.85
2022-09-06T09:44:45.970Z,16.86
2022-09-06T09:47:28.441Z,16.88
2022-09-06T09:49:58.071Z,17.03
2022-09-06T09:52:31.821Z,17.14
2022-09-06T09:55:08.561Z,17.08
2022-09-06T09:57:47.804Z,17.08
2022-09-06T10:00:17.913Z,17.18
2022-09-06T10:02:47.383Z,17.46
2022-09-06T10:05:22.881Z,17.51
2022-09-06T10:07:56.437Z,17.48
2022-09-06T10:10:27.455Z,17.55
2022-09-06T10:13:10.267Z,17.76
2022-09-06T10:15:41.424Z,17.74
2022-09-06T10:18:18.294Z,17.78
2022-09-06T10:20:53.773Z,17.67
2022-09-06T10:26:28.398Z,17.63
2022-09-06T10:29:01.934Z,17.84
2022-09-06T10:32:04.234Z,17.95
2022-09-06T10:34:48.369Z,18.07
2022-09-06T10:37:32.307Z,18.05
2022-09-06T10:40:09.972Z,18.00
2022-09-06T10:42:45.791Z,18.10
2022-09-06T10:45:31.508Z,18.27
2022-09-06T10:48:04.821Z,18.22
2022-09-06T10:50:43.009Z,18.16
2022-09-06T10:53:19.422Z,18.10
2022-09-06T10:55:58.729Z,18.05
2022-09-06T11:01:33.250Z,18.15
2022-09-06T11:04:06.739Z,18.03
2022-09-06T11:06:47.114Z,18.13
2022-09-06T11:09:22.821Z,18.25
2022-09-06T11:12:04.091Z,18.28
2022-09-06T11:14:33.754Z,18.24
2022-09-06T11:17:07.232Z,18.25
2022-09-06T11:19:42.435Z,18.19
2022-09-06T11:22:35.820Z,18.17
2022-09-06T11:25:28.951Z,18.12
2022-09-06T11:28:02.615Z,18.19
2022-09-06T11:30:33.098Z,18.07
2022-09-06T11:33:14.922Z,18.08
2022-09-06T11:35:45.078Z,18.20
2022-09-06T11:38:23.729Z,18.34
2022-09-06T11:41:00.658Z,18.19
2022-09-06T11:43:48.475Z,18.17
2022-09-06T11:46:56.158Z,18.17
2022-09-06T11:49:41.861Z,18.28
2022-09-06T11:52:41.546Z,18.37
2022-09-06T11:55:16.597Z,18.34
2022-09-06T11:57:48.514Z,18.35
2022-09-06T12:00:25.749Z,18.32
2022-09-06T12:06:15.210Z,18.54
2022-09-06T12:08:45.072Z,18.42
2022-09-06T12:11:30.997Z,18.50
2022-09-06T12:14:05.931Z,18.39
2022-09-06T12:17:07.044Z,18.40
2022-09-06T12:19:47.442Z,18.42
2022-09-06T12:23:04.111Z,18.43
2022-09-06T12:25:58.572Z,18.42
2022-09-06T12:28:47.309Z,18.49
2022-09-06T12:31:29.248Z,18.71
2022-09-06T12:34:00.202Z,18.72
2022-09-06T12:36:34.286Z,18.78
2022-09-06T12:39:06.859Z,18.90
2022-09-06T12:41:43.540Z,18.88
2022-09-06T12:44:14.049Z,18.81
2022-09-06T12:46:48.753Z,18.66
2022-09-06T12:49:21.215Z,18.66
2022-09-06T12:51:53.298Z,18.68
2022-09-06T12:54:25.308Z,18.72
2022-09-06T12:56:55.725Z,18.72
2022-09-06T12:59:27.227Z,18.69
2022-09-06T13:02:01.617Z,18.69
2022-09-06T13:04:39.825Z,18.71
2022-09-06T13:07:15.006Z,18.62
2022-09-06T13:09:46.915Z,18.51
2022-09-06T13:12:26.359Z,18.46
2022-09-06T13:14:56.641Z,18.45
2022-09-06T13:17:27.890Z,18.52
2022-09-06T13:19:58.193Z,18.43
2022-09-06T13:22:44.979Z,18.40
2022-09-06T13:25:26.839Z,18.41
2022-09-06T13:28:01.474Z,18.49
2022-09-06T13:30:36.894Z,18.40
2022-09-06T13:33:07.970Z,18.42
2022-09-06T13:35:39.874Z,18.45
2022-09-06T13:38:35.019Z,18.45
2022-09-06T13:41:15.871Z,18.45
2022-09-06T13:43:48.052Z,18.52
2022-09-06T13:46:17.619Z,18.44
2022-09-06T13:48:47.092Z,18.34
2022-09-06T13:51:18.226Z,18.40
2022-09-06T13:53:50.273Z,18.41
2022-09-06T13:56:19.921Z,18.55
2022-09-06T13:58:49.618Z,18.54
2022-09-06T14:01:19.369Z,18.52
2022-09-06T14:03:48.908Z,18.53
2022-09-06T14:06:18.813Z,18.41
2022-09-06T14:09:06.457Z,18.41
2022-09-06T14:11:38.000Z,18.41
2022-09-06T14:14:07.937Z,18.39
2022-09-06T14:16:37.530Z,18.33
2022-09-06T14:19:07.862Z,18.30
2022-09-06T14:21:37.514Z,18.30
2022-09-06T14:24:10.342Z,18.34
2022-09-06T14:26:40.645Z,18.41
2022-09-06T14:29:10.077Z,18.50
2022-09-06T14:31:39.799Z,18.47
2022-09-06T14:34:09.242Z,18.46
2022-09-06T14:36:38.738Z,18.41
2022-09-06T14:39:10.822Z,18.36
2022-09-06T14:41:40.514Z,18.43
2022-09-06T14:44:10.102Z,18.44
2022-09-06T14:46:39.797Z,18.41
2022-09-06T14:49:10.948Z,18.49
2022-09-06T14:51:41.006Z,18.53
2022-09-06T14:54:14.791Z,18.39
2022-09-06T14:56:45.318Z,18.43
2022-09-06T14:59:15.310Z,18.46
2022-09-06T15:01:44.999Z,18.43
2022-09-06T15:04:15.098Z,18.52
2022-09-06T15:06:47.123Z,18.56
2022-09-06T15:09:21.004Z,18.71
2022-09-06T15:11:51.934Z,18.75
2022-09-06T15:14:23.109Z,18.86
2022-09-06T15:16:56.498Z,18.80
2022-09-06T15:19:27.198Z,18.77
2022-09-06T15:21:57.301Z,18.63
2022-09-06T15:24:29.494Z,18.57
2022-09-06T15:26:59.424Z,18.63
2022-09-06T15:29:29.699Z,18.62
2022-09-06T15:31:59.301Z,18.72
2022-09-06T15:34:29.224Z,18.75
2022-09-06T15:36:59.231Z,18.81
2022-09-06T15:39:31.485Z,18.62
2022-09-06T15:42:01.258Z,18.62
2022-09-06T15:44:30.863Z,18.68
2022-09-06T15:47:01.154Z,18.65
2022-09-06T15:49:33.874Z,18.63
2022-09-06T15:52:06.056Z,18.60
2022-09-06T15:54:50.644Z,18.63
2022-09-06T15:57:20.642Z,18.54
2022-09-06T15:59:50.487Z,18.53
2022-09-06T16:02:20.122Z,18.58
2022-09-06T16:04:49.880Z,18.63
2022-09-06T16:07:19.662Z,18.67
2022-09-06T16:09:52.008Z,18.71
2022-09-06T16:12:21.763Z,18.72
2022-09-06T16:14:51.316Z,18.89
2022-09-06T16:17:22.399Z,18.97
2022-09-06T16:19:52.053Z,19.06
2022-09-06T16:22:21.598Z,19.08
2022-09-06T16:24:53.773Z,19.15
2022-09-06T16:27:23.411Z,19.32
2022-09-06T16:29:53.107Z,19.27
2022-09-06T16:32:22.721Z,19.23
2022-09-06T16:34:52.580Z,19.10
2022-09-06T16:37:22.706Z,19.08
2022-09-06T16:39:56.084Z,18.96
2022-09-06T16:42:25.706Z,18.92
2022-09-06T16:44:55.582Z,18.87
2022-09-06T16:47:25.161Z,18.89
2022-09-06T16:49:54.741Z,18.93
2022-09-06T16:52:24.331Z,18.86
2022-09-06T16:54:56.621Z,18.85
2022-09-06T16:57:26.156Z,18.81
2022-09-06T16:59:55.769Z,18.82
2022-09-06T17:02:25.429Z,18.83
2022-09-06T17:04:55.037Z,18.79
2022-09-06T17:07:24.823Z,18.75
2022-09-06T17:09:57.124Z,18.82
2022-09-06T17:12:28.027Z,18.70
2022-09-06T17:14:57.780Z,18.75
2022-09-06T17:17:24.947Z,18.68
2022-09-06T17:19:54.511Z,18.66
2022-09-06T17:22:24.320Z,18.62
2022-09-06T17:24:53.887Z,18.52
2022-09-06T17:27:26.067Z,18.57
2022-09-06T17:29:55.617Z,18.56
2022-09-06T17:32:25.609Z,18.51
2022-09-06T17:34:55.227Z,18.39
2022-09-06T17:37:25.082Z,18.41
2022-09-06T17:39:54.761Z,18.37
2022-09-06T17:42:27.098Z,18.32
2022-09-06T17:44:56.675Z,18.31
2022-09-06T17:47:26.294Z,18.27
2022-09-06T17:49:55.844Z,18.23
2022-09-06T17:52:25.504Z,18.21
2022-09-06T17:54:55.080Z,18.15
2022-09-06T17:57:27.305Z,18.26
2022-09-06T17:59:56.957Z,18.25
2022-09-06T18:02:26.575Z,18.16
2022-09-06T18:04:56.208Z,18.18
2022-09-06T18:07:25.786Z,18.20
2022-09-06T18:09:55.534Z,18.14
2022-09-06T18:12:27.985Z,18.06
2022-09-06T18:14:57.960Z,18.00
2022-09-06T18:17:27.559Z,17.85
2022-09-06T18:19:57.685Z,17.86
2022-09-06T18:22:27.758Z,17.92
2022-09-06T18:24:58.475Z,18.04
2022-09-06T18:27:30.845Z,17.96
2022-09-06T18:30:00.475Z,17.86
2022-09-06T18:32:30.140Z,17.94
2022-09-06T18:34:59.834Z,17.93
2022-09-06T18:37:30.077Z,17.88
2022-09-06T18:39:59.770Z,17.86
2022-09-06T18:42:32.084Z,17.89
2022-09-06T18:45:02.114Z,17.67
2022-09-06T18:47:31.700Z,17.62
2022-09-06T18:50:01.367Z,17.48
2022-09-06T18:52:32.201Z,17.32
2022-09-06T18:55:01.799Z,17.40
2022-09-06T18:57:33.991Z,17.31
2022-09-06T19:00:03.673Z,17.27
2022-09-06T19:02:33.263Z,17.24
2022-09-06T19:05:02.910Z,17.16
2022-09-06T19:07:32.617Z,17.13
2022-09-06T19:10:02.346Z,17.01
2022-09-06T19:12:35.482Z,16.92
2022-09-06T19:15:05.043Z,16.82
2022-09-06T19:17:34.611Z,16.83
2022-09-06T19:20:04.549Z,16.85
2022-09-06T19:22:34.146Z,16.88
2022-09-06T19:25:03.829Z,16.84
2022-09-06T19:27:36.383Z,16.81
2022-09-06T19:30:07.001Z,16.93
2022-09-06T19:32:37.302Z,17.09
2022-09-06T19:35:07.566Z,17.10
2022-09-06T19:37:38.931Z,17.08
2022-09-06T19:40:09.951Z,16.91
2022-09-06T19:42:42.132Z,16.83
2022-09-06T19:45:12.449Z,16.85
2022-09-06T19:47:42.204Z,16.81
2022-09-06T19:50:11.905Z,16.67
2022-09-06T19:52:41.465Z,16.64
2022-09-06T19:55:11.899Z,16.64
2022-09-06T19:57:44.030Z,16.52
2022-09-06T20:00:15.105Z,16.47
2022-09-06T20:02:44.802Z,16.46
2022-09-06T20:05:14.365Z,16.44
2022-09-06T20:07:43.934Z,16.40
2022-09-06T20:10:13.642Z,16.40
2022-09-06T20:12:46.227Z,16.32
2022-09-06T20:15:15.797Z,16.29
2022-09-06T20:17:45.363Z,16.27
2022-09-06T20:20:15.162Z,16.27
2022-09-06T20:22:48.208Z,16.18
2022-09-06T20:25:17.991Z,16.17
2022-09-06T20:27:50.135Z,16.08
2022-09-06T20:30:19.929Z,16.09
2022-09-06T20:32:49.512Z,15.95
2022-09-06T20:35:19.284Z,15.99
2022-09-06T20:37:48.831Z,15.98
2022-09-06T20:40:18.686Z,15.94
2022-09-06T20:42:50.872Z,15.80
2022-09-06T20:45:22.651Z,15.70
2022-09-06T20:47:52.341Z,15.64
2022-09-06T20:50:22.051Z,15.71
2022-09-06T20:52:53.147Z,15.79
2022-09-06T20:55:22.697Z,15.79
2022-09-06T20:57:55.058Z,15.77
2022-09-06T21:00:24.690Z,15.72
2022-09-06T21:02:54.346Z,15.60
2022-09-06T21:05:23.897Z,15.52
2022-09-06T21:07:53.527Z,15.53
2022-09-06T21:10:23.194Z,15.77
2022-09-06T21:12:55.417Z,16.03
2022-09-06T21:15:24.960Z,16.21
2022-09-06T21:17:54.503Z,16.10
2022-09-06T21:20:24.165Z,16.08
2022-09-06T21:22:53.799Z,16.06
2022-09-06T21:25:23.372Z,16.00
2022-09-06T21:27:55.990Z,16.03
2022-09-06T21:30:25.733Z,16.04
2022-09-06T21:32:58.522Z,15.90
2022-09-06T21:35:28.118Z,15.73
2022-09-06T21:37:57.665Z,15.62
2022-09-06T21:40:27.345Z,15.66
2022-09-06T21:42:59.478Z,15.49
2022-09-06T21:45:29.061Z,15.41
2022-09-06T21:47:58.613Z,15.40
2022-09-06T21:50:28.231Z,15.43
2022-09-06T21:52:57.829Z,15.33
2022-09-06T21:55:27.487Z,15.30
2022-09-06T21:57:59.653Z,15.24
2022-09-06T22:00:29.353Z,15.27
2022-09-06T22:02:59.015Z,15.19
2022-09-06T22:05:28.784Z,15.16
2022-09-06T22:07:58.420Z,15.17
2022-09-06T22:10:28.584Z,15.17
2022-09-06T22:13:00.766Z,15.22
2022-09-06T22:15:30.361Z,15.19
2022-09-06T22:17:59.926Z,15.17
2022-09-06T22:20:29.522Z,15.14
2022-09-06T22:22:59.238Z,15.11
2022-09-06T22:25:28.803Z,15.14
2022-09-06T22:28:01.305Z,15.12
2022-09-06T22:30:30.936Z,15.15
2022-09-06T22:33:00.640Z,15.08
2022-09-06T22:35:30.502Z,15.08
2022-09-06T22:38:00.070Z,14.98
2022-09-06T22:40:29.750Z,15.00
2022-09-06T22:43:02.471Z,15.04
2022-09-06T22:45:32.655Z,15.07
2022-09-06T22:48:02.431Z,15.01
2022-09-06T22:50:32.558Z,14.93
2022-09-06T22:53:02.142Z,14.83
2022-09-06T22:55:31.706Z,14.80
2022-09-06T22:58:03.959Z,14.89
2022-09-06T23:00:33.803Z,14.88
2022-09-06T23:03:03.476Z,14.89
2022-09-06T23:05:33.667Z,14.89
2022-09-06T23:08:03.914Z,14.82
2022-09-06T23:10:34.303Z,14.75
2022-09-06T23:13:07.837Z,14.77
2022-09-06T23:15:38.015Z,14.92
2022-09-06T23:18:07.603Z,14.86
2022-09-06T23:20:38.566Z,14.75
2022-09-06T23:23:08.633Z,14.80
2022-09-06T23:25:39.975Z,14.80
2022-09-06T23:28:12.157Z,14.87
2022-09-06T23:30:41.852Z,14.78
2022-09-06T23:33:11.411Z,14.84
2022-09-06T23:35:41.263Z,14.77
2022-09-06T23:38:10.905Z,14.90
2022-09-06T23:40:40.538Z,14.89
2022-09-06T23:43:12.709Z,14.84
2022-09-06T23:45:42.280Z,14.81
2022-09-06T23:48:11.918Z,14.69
2022-09-06T23:50:41.586Z,14.65
2022-09-06T23:53:11.619Z,14.74
2022-09-06T23:55:41.254Z,14.75
2022-09-06T23:58:13.922Z,14.72
